sensor_id;sensor_type;location;lat;lon;timestamp;temperature;humidity
75964;DHT22;65820;44.726;37.764;2022-12-05T00:26:37;19.05;51.63
75964;DHT22;65820;44.726;37.764;2022-12-05T00:27:39;19.03;51.63
75964;DHT22;65820;44.726;37.764;2022-12-05T00:28:40;19.03;51.70
75964;DHT22;65820;44.726;37.764;2022-12-05T00:37:28;18.99;50.05
75964;DHT22;65820;44.726;37.764;2022-12-05T01:19:20;18.88;49.11
75964;DHT22;65820;44.726;37.764;2022-12-05T01:47:32;18.59;49.21
75964;DHT22;65820;44.726;37.764;2022-12-05T01:48:35;18.59;48.91
75964;DHT22;65820;44.726;37.764;2022-12-05T01:57:01;18.55;48.76
75964;DHT22;65820;44.726;37.764;2022-12-05T01:59:26;18.54;48.47
75964;DHT22;65820;44.726;37.764;2022-12-05T03:02:55;18.33;48.27
75964;DHT22;65820;44.726;37.764;2022-12-05T03:27:24;18.28;48.47
75964;DHT22;65820;44.726;37.764;2022-12-05T03:28:16;18.29;48.69
75964;DHT22;65820;44.726;37.764;2022-12-05T03:29:47;18.27;48.02
75964;DHT22;65820;44.726;37.764;2022-12-05T03:30:52;18.30;48.47
75964;DHT22;65820;44.726;37.764;2022-12-05T03:33:41;18.29;48.56
75964;DHT22;65820;44.726;37.764;2022-12-05T03:35:04;18.29;47.82
75964;DHT22;65820;44.726;37.764;2022-12-05T03:36:24;18.29;48.47
75964;DHT22;65820;44.726;37.764;2022-12-05T03:40:35;18.29;48.14
75964;DHT22;65820;44.726;37.764;2022-12-05T03:45:00;18.30;48.31
75964;DHT22;65820;44.726;37.764;2022-12-05T03:46:17;18.32;48.31
75964;DHT22;65820;44.726;37.764;2022-12-05T03:50:46;18.32;48.34
75964;DHT22;65820;44.726;37.764;2022-12-05T03:52:04;18.32;47.93
75964;DHT22;65820;44.726;37.764;2022-12-05T03:53:10;18.33;48.56
75964;DHT22;65820;44.726;37.764;2022-12-05T03:55:10;18.32;47.79
75964;DHT22;65820;44.726;37.764;2022-12-05T04:00:00;18.32;48.06
75964;DHT22;65820;44.726;37.764;2022-12-05T04:04:08;18.29;48.15
75964;DHT22;65820;44.726;37.764;2022-12-05T04:06:30;18.29;47.19
75964;DHT22;65820;44.726;37.764;2022-12-05T04:07:34;18.30;48.02
75964;DHT22;65820;44.726;37.764;2022-12-05T04:14:06;18.29;47.87
75964;DHT22;65820;44.726;37.764;2022-12-05T04:15:13;18.32;47.99
75964;DHT22;65820;44.726;37.764;2022-12-05T04:16:24;18.30;47.86
75964;DHT22;65820;44.726;37.764;2022-12-05T04:17:58;18.30;48.14
75964;DHT22;65820;44.726;37.764;2022-12-05T04:51:54;18.46;48.52
75964;DHT22;65820;44.726;37.764;2022-12-05T05:02:21;18.54;48.50
75964;DHT22;65820;44.726;37.764;2022-12-05T05:03:47;18.55;48.43
75964;DHT22;65820;44.726;37.764;2022-12-05T05:08:24;18.58;48.46
75964;DHT22;65820;44.726;37.764;2022-12-05T05:16:55;18.65;48.35
75964;DHT22;65820;44.726;37.764;2022-12-05T05:17:57;18.67;48.32
75964;DHT22;65820;44.726;37.764;2022-12-05T05:18:59;18.67;48.25
75964;DHT22;65820;44.726;37.764;2022-12-05T05:20:00;18.68;48.28
75964;DHT22;65820;44.726;37.764;2022-12-05T05:21:29;18.70;48.26
75964;DHT22;65820;44.726;37.764;2022-12-05T05:22:30;18.69;48.22
75964;DHT22;65820;44.726;37.764;2022-12-05T05:23:32;18.70;48.24
75964;DHT22;65820;44.726;37.764;2022-12-05T05:25:43;18.73;48.12
75964;DHT22;65820;44.726;37.764;2022-12-05T05:26:45;18.74;48.24
75964;DHT22;65820;44.726;37.764;2022-12-05T05:27:50;18.73;48.33
75964;DHT22;65820;44.726;37.764;2022-12-05T05:46:10;18.85;48.59
75964;DHT22;65820;44.726;37.764;2022-12-05T05:47:12;18.83;48.77
75964;DHT22;65820;44.726;37.764;2022-12-05T05:48:13;18.82;48.68
75964;DHT22;65820;44.726;37.764;2022-12-05T05:49:15;18.82;48.75
75964;DHT22;65820;44.726;37.764;2022-12-05T05:51:05;18.79;47.75
75964;DHT22;65820;44.726;37.764;2022-12-05T05:52:07;18.79;48.76
75964;DHT22;65820;44.726;37.764;2022-12-05T05:53:08;18.79;48.99
75964;DHT22;65820;44.726;37.764;2022-12-05T05:54:10;18.77;48.86
75964;DHT22;65820;44.726;37.764;2022-12-05T05:55:11;18.77;48.81
75964;DHT22;65820;44.726;37.764;2022-12-05T06:00:18;18.73;48.95
75964;DHT22;65820;44.726;37.764;2022-12-05T06:01:20;18.72;48.98
75964;DHT22;65820;44.726;37.764;2022-12-05T06:16:03;18.63;48.29
75964;DHT22;65820;44.726;37.764;2022-12-05T06:17:04;18.61;47.64
75964;DHT22;65820;44.726;37.764;2022-12-05T06:18:06;18.61;48.02
75964;DHT22;65820;44.726;37.764;2022-12-05T06:19:07;18.59;48.35
75964;DHT22;65820;44.726;37.764;2022-12-05T06:20:09;18.57;47.57
75964;DHT22;65820;44.726;37.764;2022-12-05T06:31:26;18.52;48.63
75964;DHT22;65820;44.726;37.764;2022-12-05T06:33:19;18.53;49.00
75964;DHT22;65820;44.726;37.764;2022-12-05T06:34:21;18.52;48.70
75964;DHT22;65820;44.726;37.764;2022-12-05T06:37:14;18.51;48.25
75964;DHT22;65820;44.726;37.764;2022-12-05T06:41:02;18.48;47.19
75964;DHT22;65820;44.726;37.764;2022-12-05T06:52:02;18.41;47.39
75964;DHT22;65820;44.726;37.764;2022-12-05T06:53:03;18.40;47.91
75964;DHT22;65820;44.726;37.764;2022-12-05T06:58:55;18.38;48.05
75964;DHT22;65820;44.726;37.764;2022-12-05T07:12:43;18.29;48.02
75964;DHT22;65820;44.726;37.764;2022-12-05T07:13:44;18.32;47.89
75964;DHT22;65820;44.726;37.764;2022-12-05T07:18:29;18.29;47.90
75964;DHT22;65820;44.726;37.764;2022-12-05T07:19:30;18.28;47.95
75964;DHT22;65820;44.726;37.764;2022-12-05T07:20:32;18.28;48.05
75964;DHT22;65820;44.726;37.764;2022-12-05T07:21:33;18.29;47.95
75964;DHT22;65820;44.726;37.764;2022-12-05T07:22:35;18.28;47.92
75964;DHT22;65820;44.726;37.764;2022-12-05T07:23:37;18.28;48.06
75964;DHT22;65820;44.726;37.764;2022-12-05T07:24:38;18.29;47.66
75964;DHT22;65820;44.726;37.764;2022-12-05T07:25:40;18.29;47.70
75964;DHT22;65820;44.726;37.764;2022-12-05T07:28:47;18.30;47.89
75964;DHT22;65820;44.726;37.764;2022-12-05T07:29:48;18.29;47.96
75964;DHT22;65820;44.726;37.764;2022-12-05T07:31:00;18.29;47.77
75964;DHT22;65820;44.726;37.764;2022-12-05T07:32:02;18.30;47.79
75964;DHT22;65820;44.726;37.764;2022-12-05T07:33:03;18.29;47.15
75964;DHT22;65820;44.726;37.764;2022-12-05T07:34:05;18.30;47.59
75964;DHT22;65820;44.726;37.764;2022-12-05T07:35:06;18.30;47.81
75964;DHT22;65820;44.726;37.764;2022-12-05T07:36:11;18.30;47.64
75964;DHT22;65820;44.726;37.764;2022-12-05T07:37:12;18.30;47.62
75964;DHT22;65820;44.726;37.764;2022-12-05T07:38:14;18.32;47.56
75964;DHT22;65820;44.726;37.764;2022-12-05T07:39:15;18.32;47.46
75964;DHT22;65820;44.726;37.764;2022-12-05T07:41:19;18.30;47.44
75964;DHT22;65820;44.726;37.764;2022-12-05T07:42:21;18.30;47.70
75964;DHT22;65820;44.726;37.764;2022-12-05T07:43:23;18.32;47.09
75964;DHT22;65820;44.726;37.764;2022-12-05T07:44:24;18.32;47.66
75964;DHT22;65820;44.726;37.764;2022-12-05T07:45:26;18.32;47.57
75964;DHT22;65820;44.726;37.764;2022-12-05T07:46:27;18.32;47.28
75964;DHT22;65820;44.726;37.764;2022-12-05T07:47:29;18.32;47.54
75964;DHT22;65820;44.726;37.764;2022-12-05T07:48:31;18.32;47.41
75964;DHT22;65820;44.726;37.764;2022-12-05T07:49:33;18.34;47.30
75964;DHT22;65820;44.726;37.764;2022-12-05T07:50:35;18.33;47.31
75964;DHT22;65820;44.726;37.764;2022-12-05T07:51:37;18.33;47.41
75964;DHT22;65820;44.726;37.764;2022-12-05T07:52:39;18.33;47.34
75964;DHT22;65820;44.726;37.764;2022-12-05T07:53:40;18.34;47.20
75964;DHT22;65820;44.726;37.764;2022-12-05T07:54:43;18.33;46.92
75964;DHT22;65820;44.726;37.764;2022-12-05T07:55:45;18.33;47.04
75964;DHT22;65820;44.726;37.764;2022-12-05T07:56:46;18.34;47.39
75964;DHT22;65820;44.726;37.764;2022-12-05T07:57:47;18.34;47.25
75964;DHT22;65820;44.726;37.764;2022-12-05T07:58:49;18.34;47.27
75964;DHT22;65820;44.726;37.764;2022-12-05T08:02:55;18.33;47.26
75964;DHT22;65820;44.726;37.764;2022-12-05T08:03:58;18.34;47.02
75964;DHT22;65820;44.726;37.764;2022-12-05T08:04:59;18.34;47.21
75964;DHT22;65820;44.726;37.764;2022-12-05T08:06:03;18.34;47.31
75964;DHT22;65820;44.726;37.764;2022-12-05T08:07:05;18.33;47.31
75964;DHT22;65820;44.726;37.764;2022-12-05T08:08:06;18.32;47.32
75964;DHT22;65820;44.726;37.764;2022-12-05T08:09:08;18.33;47.12
75964;DHT22;65820;44.726;37.764;2022-12-05T08:10:09;18.34;47.31
75964;DHT22;65820;44.726;37.764;2022-12-05T08:11:14;18.34;47.31
75964;DHT22;65820;44.726;37.764;2022-12-05T08:12:15;18.33;47.49
75964;DHT22;65820;44.726;37.764;2022-12-05T08:13:17;18.33;47.20
75964;DHT22;65820;44.726;37.764;2022-12-05T08:14:18;18.32;47.33
75964;DHT22;65820;44.726;37.764;2022-12-05T08:15:20;18.33;47.36
75964;DHT22;65820;44.726;37.764;2022-12-05T08:16:24;18.33;47.22
75964;DHT22;65820;44.726;37.764;2022-12-05T08:17:28;18.33;47.24
75964;DHT22;65820;44.726;37.764;2022-12-05T08:18:30;18.33;47.28
75964;DHT22;65820;44.726;37.764;2022-12-05T08:19:31;18.33;47.26
75964;DHT22;65820;44.726;37.764;2022-12-05T08:20:33;18.33;46.90
75964;DHT22;65820;44.726;37.764;2022-12-05T08:21:34;18.34;47.28
75964;DHT22;65820;44.726;37.764;2022-12-05T08:22:36;18.34;46.76
75964;DHT22;65820;44.726;37.764;2022-12-05T08:23:39;18.34;47.07
75964;DHT22;65820;44.726;37.764;2022-12-05T08:24:40;18.34;47.20
75964;DHT22;65820;44.726;37.764;2022-12-05T08:25:42;18.34;47.11
75964;DHT22;65820;44.726;37.764;2022-12-05T08:26:43;18.33;47.10
75964;DHT22;65820;44.726;37.764;2022-12-05T08:27:44;18.33;46.94
75964;DHT22;65820;44.726;37.764;2022-12-05T08:28:50;18.33;47.12
75964;DHT22;65820;44.726;37.764;2022-12-05T08:29:53;18.33;46.77
75964;DHT22;65820;44.726;37.764;2022-12-05T08:30:54;18.33;47.19
75964;DHT22;65820;44.726;37.764;2022-12-05T08:31:56;18.33;47.11
75964;DHT22;65820;44.726;37.764;2022-12-05T08:32:57;18.34;47.22
75964;DHT22;65820;44.726;37.764;2022-12-05T08:33:59;18.34;46.89
75964;DHT22;65820;44.726;37.764;2022-12-05T08:35:01;18.33;47.09
75964;DHT22;65820;44.726;37.764;2022-12-05T08:36:04;18.33;46.89
75964;DHT22;65820;44.726;37.764;2022-12-05T08:37:06;18.33;46.76
75964;DHT22;65820;44.726;37.764;2022-12-05T08:38:07;18.34;46.69
75964;DHT22;65820;44.726;37.764;2022-12-05T08:39:58;18.33;46.67
75964;DHT22;65820;44.726;37.764;2022-12-05T08:41:04;18.32;47.09
75964;DHT22;65820;44.726;37.764;2022-12-05T08:42:05;18.33;47.16
75964;DHT22;65820;44.726;37.764;2022-12-05T08:43:07;18.34;47.06
75964;DHT22;65820;44.726;37.764;2022-12-05T08:44:09;18.32;47.07
75964;DHT22;65820;44.726;37.764;2022-12-05T08:50:17;18.30;46.67
75964;DHT22;65820;44.726;37.764;2022-12-05T08:51:19;18.30;46.86
75964;DHT22;65820;44.726;37.764;2022-12-05T08:53:30;18.29;47.01
75964;DHT22;65820;44.726;37.764;2022-12-05T08:55:20;18.29;46.99
75964;DHT22;65820;44.726;37.764;2022-12-05T08:56:22;18.29;47.09
75964;DHT22;65820;44.726;37.764;2022-12-05T08:57:23;18.29;47.27
75964;DHT22;65820;44.726;37.764;2022-12-05T09:06:51;18.26;47.18
75964;DHT22;65820;44.726;37.764;2022-12-05T09:10:37;18.25;47.13
75964;DHT22;65820;44.726;37.764;2022-12-05T09:11:43;18.25;47.13
75964;DHT22;65820;44.726;37.764;2022-12-05T09:12:49;18.24;47.25
75964;DHT22;65820;44.726;37.764;2022-12-05T09:13:52;18.25;47.32
75964;DHT22;65820;44.726;37.764;2022-12-05T09:18:45;18.25;47.25
75964;DHT22;65820;44.726;37.764;2022-12-05T09:20:38;18.23;47.18
75964;DHT22;65820;44.726;37.764;2022-12-05T09:21:39;18.23;46.89
75964;DHT22;65820;44.726;37.764;2022-12-05T09:22:41;18.24;47.10
75964;DHT22;65820;44.726;37.764;2022-12-05T09:23:43;18.23;47.15
75964;DHT22;65820;44.726;37.764;2022-12-05T09:24:44;18.23;47.15
75964;DHT22;65820;44.726;37.764;2022-12-05T09:25:52;18.23;47.22
75964;DHT22;65820;44.726;37.764;2022-12-05T09:26:58;18.24;47.20
75964;DHT22;65820;44.726;37.764;2022-12-05T09:27:59;18.23;47.17
75964;DHT22;65820;44.726;37.764;2022-12-05T09:29:00;18.24;47.15
75964;DHT22;65820;44.726;37.764;2022-12-05T09:30:04;18.25;47.01
75964;DHT22;65820;44.726;37.764;2022-12-05T09:31:07;18.24;47.10
75964;DHT22;65820;44.726;37.764;2022-12-05T09:32:09;18.24;47.17
75964;DHT22;65820;44.726;37.764;2022-12-05T09:33:11;18.26;47.24
75964;DHT22;65820;44.726;37.764;2022-12-05T09:35:08;18.26;47.12
75964;DHT22;65820;44.726;37.764;2022-12-05T09:36:21;18.25;47.23
75964;DHT22;65820;44.726;37.764;2022-12-05T09:42:42;18.26;47.02
75964;DHT22;65820;44.726;37.764;2022-12-05T09:45:04;18.25;46.20
75964;DHT22;65820;44.726;37.764;2022-12-05T09:46:24;18.25;47.09
75964;DHT22;65820;44.726;37.764;2022-12-05T09:48:54;18.24;46.96
75964;DHT22;65820;44.726;37.764;2022-12-05T09:50:14;18.24;47.17
75964;DHT22;65820;44.726;37.764;2022-12-05T09:51:17;18.25;47.12
75964;DHT22;65820;44.726;37.764;2022-12-05T09:52:28;18.24;47.12
75964;DHT22;65820;44.726;37.764;2022-12-05T09:53:35;18.24;46.91
75964;DHT22;65820;44.726;37.764;2022-12-05T09:54:37;18.24;47.07
75964;DHT22;65820;44.726;37.764;2022-12-05T09:56:11;18.24;46.98
75964;DHT22;65820;44.726;37.764;2022-12-05T09:59:48;18.24;47.05
75964;DHT22;65820;44.726;37.764;2022-12-05T10:00:54;18.23;47.04
75964;DHT22;65820;44.726;37.764;2022-12-05T10:04:56;18.24;47.07
75964;DHT22;65820;44.726;37.764;2022-12-05T10:12:09;18.22;46.96
75964;DHT22;65820;44.726;37.764;2022-12-05T10:20:33;18.22;47.46
75964;DHT22;65820;44.726;37.764;2022-12-05T10:21:54;18.21;47.60
75964;DHT22;65820;44.726;37.764;2022-12-05T10:32:19;18.25;48.44
75964;DHT22;65820;44.726;37.764;2022-12-05T10:33:23;18.26;48.36
75964;DHT22;65820;44.726;37.764;2022-12-05T10:34:30;18.24;48.30
75964;DHT22;65820;44.726;37.764;2022-12-05T10:35:36;18.24;48.39
75964;DHT22;65820;44.726;37.764;2022-12-05T10:36:37;18.27;48.36
75964;DHT22;65820;44.726;37.764;2022-12-05T10:37:39;18.26;48.34
75964;DHT22;65820;44.726;37.764;2022-12-05T10:38:43;18.28;48.41
75964;DHT22;65820;44.726;37.764;2022-12-05T10:48:22;18.28;48.02
75964;DHT22;65820;44.726;37.764;2022-12-05T10:49:24;18.29;47.85
75964;DHT22;65820;44.726;37.764;2022-12-05T10:51:30;18.30;47.93
75964;DHT22;65820;44.726;37.764;2022-12-05T10:57:40;18.29;47.84
75964;DHT22;65820;44.726;37.764;2022-12-05T10:58:54;18.29;47.65
75964;DHT22;65820;44.726;37.764;2022-12-05T10:59:57;18.29;47.76
75964;DHT22;65820;44.726;37.764;2022-12-05T11:01:07;18.30;47.78
75964;DHT22;65820;44.726;37.764;2022-12-05T11:02:25;18.30;47.65
75964;DHT22;65820;44.726;37.764;2022-12-05T11:03:29;18.29;47.73
75964;DHT22;65820;44.726;37.764;2022-12-05T11:04:42;18.29;47.70
75964;DHT22;65820;44.726;37.764;2022-12-05T11:05:49;18.32;47.60
75964;DHT22;65820;44.726;37.764;2022-12-05T11:06:59;18.28;47.66
75964;DHT22;65820;44.726;37.764;2022-12-05T11:08:01;18.32;47.60
75964;DHT22;65820;44.726;37.764;2022-12-05T11:19:32;18.29;47.92
75964;DHT22;65820;44.726;37.764;2022-12-05T11:20:36;18.32;48.12
75964;DHT22;65820;44.726;37.764;2022-12-05T11:21:41;18.30;48.11
75964;DHT22;65820;44.726;37.764;2022-12-05T11:37:21;18.37;48.92
75964;DHT22;65820;44.726;37.764;2022-12-05T11:38:27;18.36;48.75
75964;DHT22;65820;44.726;37.764;2022-12-05T12:31:29;18.40;48.01
75964;DHT22;65820;44.726;37.764;2022-12-05T12:36:52;18.39;48.00
75964;DHT22;65820;44.726;37.764;2022-12-05T13:01:42;18.30;47.87
75964;DHT22;65820;44.726;37.764;2022-12-05T13:02:51;18.30;47.85
75964;DHT22;65820;44.726;37.764;2022-12-05T13:04:04;18.30;47.83
75964;DHT22;65820;44.726;37.764;2022-12-05T13:06:28;18.29;47.85
75964;DHT22;65820;44.726;37.764;2022-12-05T13:07:07;18.30;48.06
75964;DHT22;65820;44.726;37.764;2022-12-05T13:08:27;18.33;48.16
75964;DHT22;65820;44.726;37.764;2022-12-05T13:09:44;18.33;47.70
75964;DHT22;65820;44.726;37.764;2022-12-05T13:10:48;18.33;48.09
75964;DHT22;65820;44.726;37.764;2022-12-05T13:19:26;18.36;48.40
75964;DHT22;65820;44.726;37.764;2022-12-05T13:20:33;18.36;48.40
75964;DHT22;65820;44.726;37.764;2022-12-05T13:21:34;18.38;48.32
75964;DHT22;65820;44.726;37.764;2022-12-05T13:22:36;18.39;48.47
75964;DHT22;65820;44.726;37.764;2022-12-05T13:23:49;18.38;48.45
75964;DHT22;65820;44.726;37.764;2022-12-05T13:24:52;18.39;48.42
75964;DHT22;65820;44.726;37.764;2022-12-05T13:25:55;18.39;48.42
75964;DHT22;65820;44.726;37.764;2022-12-05T13:27:00;18.40;48.34
75964;DHT22;65820;44.726;37.764;2022-12-05T13:28:04;18.39;48.41
75964;DHT22;65820;44.726;37.764;2022-12-05T13:29:21;18.41;48.26
75964;DHT22;65820;44.726;37.764;2022-12-05T13:30:25;18.41;48.31
75964;DHT22;65820;44.726;37.764;2022-12-05T13:31:44;18.42;48.19
75964;DHT22;65820;44.726;37.764;2022-12-05T13:32:54;18.44;48.22
75964;DHT22;65820;44.726;37.764;2022-12-05T13:33:57;18.43;48.28
75964;DHT22;65820;44.726;37.764;2022-12-05T13:36:46;18.44;48.24
75964;DHT22;65820;44.726;37.764;2022-12-05T13:38:28;18.46;48.14
75964;DHT22;65820;44.726;37.764;2022-12-05T13:39:54;18.46;48.28
75964;DHT22;65820;44.726;37.764;2022-12-05T13:41:38;18.47;48.12
75964;DHT22;65820;44.726;37.764;2022-12-05T13:43:02;18.47;48.14
75964;DHT22;65820;44.726;37.764;2022-12-05T13:44:13;18.47;48.09
75964;DHT22;65820;44.726;37.764;2022-12-05T13:45:26;18.48;48.00
75964;DHT22;65820;44.726;37.764;2022-12-05T13:46:41;18.48;47.89
75964;DHT22;65820;44.726;37.764;2022-12-05T13:47:51;18.48;47.86
75964;DHT22;65820;44.726;37.764;2022-12-05T13:49:02;18.49;47.97
75964;DHT22;65820;44.726;37.764;2022-12-05T13:54:15;18.47;47.99
75964;DHT22;65820;44.726;37.764;2022-12-05T13:56:53;18.48;47.94
75964;DHT22;65820;44.726;37.764;2022-12-05T13:58:00;18.49;47.94
75964;DHT22;65820;44.726;37.764;2022-12-05T13:59:07;18.48;47.99
75964;DHT22;65820;44.726;37.764;2022-12-05T14:00:19;18.48;47.92
75964;DHT22;65820;44.726;37.764;2022-12-05T14:04:48;18.48;47.88
75964;DHT22;65820;44.726;37.764;2022-12-05T14:05:54;18.49;47.97
75964;DHT22;65820;44.726;37.764;2022-12-05T14:06:56;18.49;47.96
75964;DHT22;65820;44.726;37.764;2022-12-05T14:07:58;18.48;47.99
75964;DHT22;65820;44.726;37.764;2022-12-05T14:09:30;18.49;47.97
75964;DHT22;65820;44.726;37.764;2022-12-05T14:15:22;18.49;47.82
75964;DHT22;65820;44.726;37.764;2022-12-05T14:17:27;18.49;47.95
75964;DHT22;65820;44.726;37.764;2022-12-05T14:18:46;18.49;48.02
75964;DHT22;65820;44.726;37.764;2022-12-05T14:25:26;18.50;47.89
75964;DHT22;65820;44.726;37.764;2022-12-05T14:27:32;18.50;48.12
75964;DHT22;65820;44.726;37.764;2022-12-05T14:29:06;18.50;47.82
75964;DHT22;65820;44.726;37.764;2022-12-05T14:32:37;18.50;47.93
75964;DHT22;65820;44.726;37.764;2022-12-05T14:33:40;18.49;47.99
75964;DHT22;65820;44.726;37.764;2022-12-05T14:35:15;18.51;48.03
75964;DHT22;65820;44.726;37.764;2022-12-05T14:36:20;18.49;48.02
75964;DHT22;65820;44.726;37.764;2022-12-05T14:37:40;18.51;47.99
75964;DHT22;65820;44.726;37.764;2022-12-05T14:38:43;18.51;48.02
75964;DHT22;65820;44.726;37.764;2022-12-05T14:39:49;18.52;47.98
75964;DHT22;65820;44.726;37.764;2022-12-05T14:40:52;18.52;47.98
75964;DHT22;65820;44.726;37.764;2022-12-05T14:41:58;18.51;47.86
75964;DHT22;65820;44.726;37.764;2022-12-05T14:43:31;18.52;47.90
75964;DHT22;65820;44.726;37.764;2022-12-05T14:44:33;18.52;47.84
75964;DHT22;65820;44.726;37.764;2022-12-05T14:46:43;18.52;47.78
75964;DHT22;65820;44.726;37.764;2022-12-05T14:47:50;18.52;47.75
75964;DHT22;65820;44.726;37.764;2022-12-05T14:48:52;18.53;47.80
75964;DHT22;65820;44.726;37.764;2022-12-05T14:49:57;18.53;47.67
75964;DHT22;65820;44.726;37.764;2022-12-05T14:52:31;18.52;47.72
75964;DHT22;65820;44.726;37.764;2022-12-05T14:53:36;18.53;47.51
75964;DHT22;65820;44.726;37.764;2022-12-05T14:54:39;18.51;46.47
75964;DHT22;65820;44.726;37.764;2022-12-05T14:55:45;18.52;47.65
75964;DHT22;65820;44.726;37.764;2022-12-05T14:56:50;18.54;47.18
75964;DHT22;65820;44.726;37.764;2022-12-05T14:57:55;18.51;46.86
75964;DHT22;65820;44.726;37.764;2022-12-05T14:59:00;18.52;46.96
75964;DHT22;65820;44.726;37.764;2022-12-05T15:00:13;18.51;46.82
75964;DHT22;65820;44.726;37.764;2022-12-05T15:01:50;18.51;46.94
75964;DHT22;65820;44.726;37.764;2022-12-05T15:02:54;18.50;46.83
75964;DHT22;65820;44.726;37.764;2022-12-05T15:05:32;18.47;46.22
75964;DHT22;65820;44.726;37.764;2022-12-05T15:06:52;18.48;47.00
75964;DHT22;65820;44.726;37.764;2022-12-05T15:07:55;18.47;46.80
75964;DHT22;65820;44.726;37.764;2022-12-05T15:09:00;18.44;46.77
75964;DHT22;65820;44.726;37.764;2022-12-05T15:10:24;18.46;46.96
75964;DHT22;65820;44.726;37.764;2022-12-05T15:11:29;18.46;46.73
75964;DHT22;65820;44.726;37.764;2022-12-05T15:12:45;18.44;46.93
75964;DHT22;65820;44.726;37.764;2022-12-05T15:13:48;18.44;46.58
75964;DHT22;65820;44.726;37.764;2022-12-05T15:15:20;18.43;46.71
75964;DHT22;65820;44.726;37.764;2022-12-05T15:16:26;18.41;46.70
75964;DHT22;65820;44.726;37.764;2022-12-05T15:17:36;18.41;46.99
75964;DHT22;65820;44.726;37.764;2022-12-05T15:18:43;18.40;46.89
75964;DHT22;65820;44.726;37.764;2022-12-05T15:19:59;18.41;46.76
75964;DHT22;65820;44.726;37.764;2022-12-05T15:21:31;18.40;46.83
75964;DHT22;65820;44.726;37.764;2022-12-05T15:22:35;18.40;46.97
75964;DHT22;65820;44.726;37.764;2022-12-05T15:23:46;18.41;47.13
75964;DHT22;65820;44.726;37.764;2022-12-05T15:24:48;18.42;47.45
75964;DHT22;65820;44.726;37.764;2022-12-05T15:25:51;18.42;47.50
75964;DHT22;65820;44.726;37.764;2022-12-05T15:26:55;18.43;47.57
75964;DHT22;65820;44.726;37.764;2022-12-05T15:28:05;18.44;47.76
75964;DHT22;65820;44.726;37.764;2022-12-05T15:30:24;18.44;48.01
75964;DHT22;65820;44.726;37.764;2022-12-05T15:31:29;18.46;47.96
75964;DHT22;65820;44.726;37.764;2022-12-05T15:32:31;18.47;48.15
75964;DHT22;65820;44.726;37.764;2022-12-05T15:33:33;18.48;48.73
75964;DHT22;65820;44.726;37.764;2022-12-05T15:34:55;18.49;48.93
75964;DHT22;65820;44.726;37.764;2022-12-05T15:35:58;18.51;49.11
75964;DHT22;65820;44.726;37.764;2022-12-05T15:38:27;18.51;48.30
75964;DHT22;65820;44.726;37.764;2022-12-05T15:39:49;18.52;48.46
75964;DHT22;65820;44.726;37.764;2022-12-05T15:40:51;18.51;48.50
75964;DHT22;65820;44.726;37.764;2022-12-05T15:41:54;18.52;48.39
75964;DHT22;65820;44.726;37.764;2022-12-05T15:42:58;18.53;48.49
75964;DHT22;65820;44.726;37.764;2022-12-05T15:43:59;18.53;48.57
75964;DHT22;65820;44.726;37.764;2022-12-05T15:46:19;18.54;48.56
75964;DHT22;65820;44.726;37.764;2022-12-05T15:47:24;18.54;48.71
75964;DHT22;65820;44.726;37.764;2022-12-05T15:48:26;18.54;48.69
75964;DHT22;65820;44.726;37.764;2022-12-05T15:49:28;18.55;48.73
75964;DHT22;65820;44.726;37.764;2022-12-05T15:50:32;18.55;49.17
75964;DHT22;65820;44.726;37.764;2022-12-05T15:51:37;18.56;48.65
75964;DHT22;65820;44.726;37.764;2022-12-05T15:52:43;18.56;48.65
75964;DHT22;65820;44.726;37.764;2022-12-05T15:54:05;18.55;49.21
75964;DHT22;65820;44.726;37.764;2022-12-05T15:55:14;18.55;48.80
75964;DHT22;65820;44.726;37.764;2022-12-05T15:56:28;18.56;48.79
75964;DHT22;65820;44.726;37.764;2022-12-05T15:57:43;18.55;48.74
75964;DHT22;65820;44.726;37.764;2022-12-05T15:59:30;18.54;48.64
75964;DHT22;65820;44.726;37.764;2022-12-05T16:00:34;18.55;48.66
75964;DHT22;65820;44.726;37.764;2022-12-05T16:01:54;18.56;48.66
75964;DHT22;65820;44.726;37.764;2022-12-05T16:03:05;18.54;48.64
75964;DHT22;65820;44.726;37.764;2022-12-05T16:04:20;18.55;48.67
75964;DHT22;65820;44.726;37.764;2022-12-05T16:05:50;18.54;48.69
75964;DHT22;65820;44.726;37.764;2022-12-05T16:06:54;18.53;48.74
75964;DHT22;65820;44.726;37.764;2022-12-05T16:07:56;18.54;48.66
75964;DHT22;65820;44.726;37.764;2022-12-05T16:08:58;18.53;48.69
75964;DHT22;65820;44.726;37.764;2022-12-05T16:10:01;18.53;48.73
75964;DHT22;65820;44.726;37.764;2022-12-05T16:11:09;18.51;48.89
75964;DHT22;65820;44.726;37.764;2022-12-05T16:12:37;18.52;48.80
75964;DHT22;65820;44.726;37.764;2022-12-05T16:13:44;18.51;48.80
75964;DHT22;65820;44.726;37.764;2022-12-05T16:15:48;18.51;48.79
75964;DHT22;65820;44.726;37.764;2022-12-05T16:16:57;18.51;48.76
75964;DHT22;65820;44.726;37.764;2022-12-05T16:18:03;18.51;48.89
75964;DHT22;65820;44.726;37.764;2022-12-05T16:22:50;18.49;48.92
75964;DHT22;65820;44.726;37.764;2022-12-05T16:23:59;18.49;48.97
75964;DHT22;65820;44.726;37.764;2022-12-05T16:25:10;18.49;48.99
75964;DHT22;65820;44.726;37.764;2022-12-05T16:26:20;18.49;48.95
75964;DHT22;65820;44.726;37.764;2022-12-05T16:30:52;18.48;49.15
75964;DHT22;65820;44.726;37.764;2022-12-05T16:31:59;18.47;49.11
75964;DHT22;65820;44.726;37.764;2022-12-05T16:43:05;18.47;49.48
75964;DHT22;65820;44.726;37.764;2022-12-05T16:45:41;18.52;49.76
75964;DHT22;65820;44.726;37.764;2022-12-05T16:46:44;18.54;49.76
75964;DHT22;65820;44.726;37.764;2022-12-05T16:47:52;18.57;50.02
75964;DHT22;65820;44.726;37.764;2022-12-05T16:50:33;18.63;49.82
75964;DHT22;65820;44.726;37.764;2022-12-05T16:51:43;18.63;50.02
75964;DHT22;65820;44.726;37.764;2022-12-05T16:52:46;18.65;50.11
75964;DHT22;65820;44.726;37.764;2022-12-05T16:53:52;18.68;49.95
75964;DHT22;65820;44.726;37.764;2022-12-05T16:54:57;18.70;50.43
75964;DHT22;65820;44.726;37.764;2022-12-05T16:56:00;18.73;50.26
75964;DHT22;65820;44.726;37.764;2022-12-05T16:57:02;18.73;50.02
75964;DHT22;65820;44.726;37.764;2022-12-05T16:58:04;18.74;50.53
75964;DHT22;65820;44.726;37.764;2022-12-05T16:59:12;18.79;50.26
75964;DHT22;65820;44.726;37.764;2022-12-05T17:00:18;18.79;50.38
75964;DHT22;65820;44.726;37.764;2022-12-05T17:01:24;18.82;50.19
75964;DHT22;65820;44.726;37.764;2022-12-05T17:02:26;18.83;50.17